createdAt,value
2018-07-24T00:00:26.704Z,970.5
2018-07-24T00:01:28.382Z,970.5
2018-07-24T00:02:30.048Z,970.5
2018-07-24T00:03:31.703Z,970.5
2018-07-24T00:04:33.370Z,970.5
2018-07-24T00:05:35.032Z,970.5
2018-07-24T00:06:36.695Z,970.5
2018-07-24T00:07:38.364Z,970.5
2018-07-24T00:08:40.029Z,970.5
2018-07-24T00:09:41.700Z,970.5
2018-07-24T00:10:43.360Z,970.5
2018-07-24T00:11:45.026Z,970.4
2018-07-24T00:12:46.697Z,970.5
2018-07-24T00:13:48.355Z,970.5
2018-07-24T00:14:50.022Z,970.5
2018-07-24T00:15:51.686Z,970.5
2018-07-24T00:16:53.390Z,970.5
2018-07-24T00:17:55.060Z,970.5
2018-07-24T00:18:56.724Z,970.5
2018-07-24T00:19:58.388Z,970.5
2018-07-24T00:21:00.050Z,970.5
2018-07-24T00:22:01.729Z,970.4
2018-07-24T00:23:03.391Z,970.4
2018-07-24T00:24:05.056Z,970.4
2018-07-24T00:25:06.727Z,970.4
2018-07-24T00:26:08.392Z,970.4
2018-07-24T00:27:10.058Z,970.4
2018-07-24T00:28:11.731Z,970.4
2018-07-24T00:29:18.307Z,970.4
2018-07-24T00:31:35.796Z,970.4
2018-07-24T00:32:37.437Z,970.4
2018-07-24T00:34:29.277Z,970.4
2018-07-24T00:35:30.921Z,970.3
2018-07-24T00:37:22.779Z,970.3
2018-07-24T00:38:24.417Z,970.3
2018-07-24T00:40:16.234Z,970.2
2018-07-24T00:41:17.878Z,970.3
2018-07-24T00:43:09.717Z,970.2
2018-07-24T00:44:11.358Z,970.3
2018-07-24T00:45:13.003Z,970.2
2018-07-24T00:46:14.637Z,970.2
2018-07-24T00:47:16.278Z,970.2
2018-07-24T00:48:17.917Z,970.2
2018-07-24T00:49:19.557Z,970.2
2018-07-24T00:50:21.194Z,970.3
2018-07-24T00:51:22.838Z,970.3
2018-07-24T00:52:24.479Z,970.3
2018-07-24T00:53:26.123Z,970.2
2018-07-24T00:54:27.776Z,970.2
2018-07-24T00:55:29.424Z,970.2
2018-07-24T00:56:31.064Z,970.2
2018-07-24T00:57:32.703Z,970.2
2018-07-24T00:58:34.351Z,970.2
2018-07-24T00:59:36.001Z,970.2
2018-07-24T01:00:37.633Z,970.2
2018-07-24T01:01:39.280Z,970.2
2018-07-24T01:02:40.917Z,970.2
2018-07-24T01:03:42.558Z,970.2
2018-07-24T01:04:44.199Z,970.2
2018-07-24T01:05:45.837Z,970.2
2018-07-24T01:06:47.476Z,970.2
2018-07-24T01:07:49.114Z,970.2
2018-07-24T01:08:50.744Z,970.3
2018-07-24T01:09:52.388Z,970.2
2018-07-24T01:10:54.018Z,970.2
2018-07-24T01:11:55.655Z,970.2
2018-07-24T01:12:57.303Z,970.2
2018-07-24T01:13:58.939Z,970.2
2018-07-24T01:15:00.575Z,970.2
2018-07-24T01:16:02.253Z,970.2
2018-07-24T01:17:03.895Z,970.2
2018-07-24T01:18:05.536Z,970.2
2018-07-24T01:19:07.170Z,970.2
2018-07-24T01:20:08.817Z,970.2
2018-07-24T01:21:10.458Z,970.2
2018-07-24T01:22:12.140Z,970.2
2018-07-24T01:23:13.772Z,970.2
2018-07-24T01:24:15.413Z,970.1
2018-07-24T01:25:17.059Z,970.1
2018-07-24T01:26:18.712Z,970.1
2018-07-24T01:27:20.350Z,970.1
2018-07-24T01:28:21.983Z,970.2
2018-07-24T01:29:23.624Z,970.2
2018-07-24T01:30:25.261Z,970.1
2018-07-24T01:31:26.901Z,970.1
2018-07-24T01:32:28.549Z,970.1
2018-07-24T01:33:30.195Z,970.1
2018-07-24T01:34:31.833Z,970.1
2018-07-24T01:35:33.468Z,970.1
2018-07-24T01:36:35.133Z,970.1
2018-07-24T01:37:36.771Z,970.1
2018-07-24T01:38:38.417Z,970.1
2018-07-24T01:39:40.057Z,970.1
2018-07-24T01:40:41.708Z,970.1
2018-07-24T01:41:43.342Z,970.1
2018-07-24T01:42:44.976Z,970.1
2018-07-24T01:43:46.614Z,970.0
2018-07-24T01:44:48.252Z,970.1
2018-07-24T01:45:49.893Z,970.1
2018-07-24T01:46:51.534Z,970.0
2018-07-24T01:47:53.174Z,970.0
2018-07-24T01:48:54.805Z,970.0
2018-07-24T01:49:56.444Z,970.0
2018-07-24T01:50:58.090Z,970.0
2018-07-24T01:51:59.719Z,970.0
2018-07-24T01:53:01.361Z,970.0
2018-07-24T01:54:03.008Z,970.0
2018-07-24T01:55:04.641Z,970.0
2018-07-24T02:01:13.466Z,970.0
2018-07-24T02:02:15.093Z,970.0
2018-07-24T02:04:06.934Z,970.0
2018-07-24T02:05:08.570Z,970.0
2018-07-24T02:07:00.385Z,970.0
2018-07-24T02:08:02.030Z,970.0
2018-07-24T02:09:53.869Z,970.0
2018-07-24T02:10:55.507Z,970.0
2018-07-24T02:12:47.327Z,970.0
2018-07-24T02:13:48.960Z,970.0
2018-07-24T02:14:50.591Z,969.9
2018-07-24T02:15:52.229Z,970.0
2018-07-24T02:16:53.865Z,970.0
2018-07-24T02:17:55.504Z,970.0
2018-07-24T02:18:57.142Z,970.0
2018-07-24T02:19:58.783Z,969.9
2018-07-24T02:21:00.433Z,970.0
2018-07-24T02:22:02.061Z,969.9
2018-07-24T02:23:03.696Z,969.9
2018-07-24T02:24:05.329Z,969.9
2018-07-24T02:25:06.972Z,969.9
2018-07-24T02:26:08.609Z,969.9
2018-07-24T02:27:10.243Z,969.9
2018-07-24T02:28:11.889Z,969.9
2018-07-24T02:29:13.542Z,969.9
2018-07-24T02:30:15.189Z,969.9
2018-07-24T02:31:16.820Z,969.9
2018-07-24T02:32:18.461Z,969.9
2018-07-24T02:33:20.116Z,969.9
2018-07-24T02:34:21.746Z,969.9
2018-07-24T02:35:23.382Z,969.9
2018-07-24T02:36:25.022Z,969.9
2018-07-24T02:37:26.656Z,969.9
2018-07-24T02:38:28.300Z,969.9
2018-07-24T02:39:29.937Z,969.9
2018-07-24T02:40:31.586Z,969.8
2018-07-24T02:41:33.215Z,969.8
2018-07-24T02:42:34.852Z,969.8
2018-07-24T02:43:36.479Z,969.8
2018-07-24T02:44:38.124Z,969.8
2018-07-24T02:45:39.765Z,969.8
2018-07-24T02:46:41.412Z,969.8
2018-07-24T02:47:43.050Z,969.8
2018-07-24T02:48:44.687Z,969.8
2018-07-24T02:49:46.715Z,969.8
2018-07-24T02:50:48.364Z,969.7
2018-07-24T02:51:50.004Z,969.7
2018-07-24T02:52:51.646Z,969.7
2018-07-24T02:53:53.281Z,969.8
2018-07-24T02:54:54.923Z,969.8
2018-07-24T02:55:56.563Z,969.8
2018-07-24T02:56:58.202Z,969.8
2018-07-24T02:57:59.831Z,969.8
2018-07-24T02:59:01.486Z,969.8
2018-07-24T03:00:03.114Z,969.8
2018-07-24T03:01:04.754Z,969.8
2018-07-24T03:02:06.399Z,969.8
2018-07-24T03:03:08.052Z,969.7
2018-07-24T03:04:09.673Z,969.8
2018-07-24T03:05:11.316Z,969.7
2018-07-24T03:06:12.944Z,969.8
2018-07-24T03:07:14.594Z,969.7
2018-07-24T03:08:16.230Z,969.8
2018-07-24T03:09:17.875Z,969.8
2018-07-24T03:10:19.537Z,969.7
2018-07-24T03:11:21.173Z,969.8
2018-07-24T03:12:22.834Z,969.8
2018-07-24T03:13:24.470Z,969.8
2018-07-24T03:14:26.113Z,969.8
2018-07-24T03:15:27.755Z,969.8
2018-07-24T03:16:29.397Z,969.7
2018-07-24T03:17:31.042Z,969.7
2018-07-24T03:18:32.679Z,969.7
2018-07-24T03:19:34.319Z,969.7
2018-07-24T03:20:35.959Z,969.7
2018-07-24T03:21:37.598Z,969.7
2018-07-24T03:22:39.238Z,969.8
2018-07-24T03:23:40.878Z,969.8
2018-07-24T03:24:42.515Z,969.8
2018-07-24T03:25:44.160Z,969.8
2018-07-24T03:26:45.802Z,969.8
2018-07-24T03:27:47.435Z,969.8
2018-07-24T03:28:49.076Z,969.8
2018-07-24T03:29:50.724Z,969.8
2018-07-24T03:30:52.365Z,969.8
2018-07-24T03:31:54.009Z,969.8
2018-07-24T03:32:55.642Z,969.7
2018-07-24T03:33:57.283Z,969.7
2018-07-24T03:34:58.926Z,969.8
2018-07-24T03:36:00.566Z,969.8
2018-07-24T03:37:02.208Z,969.8
2018-07-24T03:38:03.848Z,969.8
2018-07-24T03:39:05.496Z,969.7
2018-07-24T03:40:07.130Z,969.8
2018-07-24T03:41:08.772Z,969.8
2018-07-24T03:42:10.422Z,969.8
2018-07-24T03:43:12.062Z,969.8
2018-07-24T03:44:13.713Z,969.8
2018-07-24T03:45:15.350Z,969.8
2018-07-24T03:46:16.997Z,969.8
2018-07-24T03:47:18.645Z,969.8
2018-07-24T03:48:20.278Z,969.8
2018-07-24T03:49:21.922Z,969.8
2018-07-24T03:50:23.560Z,969.8
2018-07-24T03:51:25.205Z,969.8
2018-07-24T03:52:26.848Z,969.8
2018-07-24T03:53:28.493Z,969.8
2018-07-24T03:54:30.141Z,969.8
2018-07-24T03:55:31.780Z,969.8
2018-07-24T03:56:33.414Z,969.8
2018-07-24T03:57:35.058Z,969.8
2018-07-24T03:58:36.704Z,969.8
2018-07-24T03:59:38.349Z,969.8
2018-07-24T04:00:39.992Z,969.8
2018-07-24T04:01:41.646Z,969.8
2018-07-24T04:02:43.283Z,969.9
2018-07-24T04:03:44.924Z,969.8
2018-07-24T04:04:46.568Z,969.9
2018-07-24T04:05:48.213Z,969.9
2018-07-24T04:06:49.859Z,969.9
2018-07-24T04:07:51.505Z,969.9
2018-07-24T04:08:53.146Z,969.9
2018-07-24T04:09:54.782Z,969.9
2018-07-24T04:10:56.430Z,969.9
2018-07-24T04:11:58.078Z,969.8
2018-07-24T04:13:00.579Z,969.9
2018-07-24T04:14:02.225Z,969.9
2018-07-24T04:15:03.871Z,969.9
2018-07-24T04:16:05.514Z,969.9
2018-07-24T04:17:07.157Z,969.9
2018-07-24T04:18:08.810Z,970.0
2018-07-24T04:19:10.443Z,969.9
2018-07-24T04:20:12.096Z,969.9
2018-07-24T04:21:13.741Z,969.9
2018-07-24T04:22:15.383Z,970.0
2018-07-24T04:23:17.032Z,969.9
2018-07-24T04:24:18.676Z,970.0
2018-07-24T04:25:20.308Z,969.9
2018-07-24T04:26:21.958Z,970.0
2018-07-24T04:27:23.598Z,970.0
2018-07-24T04:28:25.242Z,970.0
2018-07-24T04:29:26.887Z,970.0
2018-07-24T04:30:28.528Z,970.0
2018-07-24T04:31:30.163Z,970.0
2018-07-24T04:32:31.813Z,970.0
2018-07-24T04:33:34.245Z,970.0
2018-07-24T04:34:35.892Z,970.0
2018-07-24T04:35:37.539Z,970.0
2018-07-24T04:36:39.182Z,969.9
2018-07-24T04:37:40.818Z,969.9
2018-07-24T04:38:42.466Z,970.0
2018-07-24T04:39:44.110Z,970.0
2018-07-24T04:40:45.754Z,970.0
2018-07-24T04:41:47.393Z,970.0
2018-07-24T04:42:49.046Z,970.0
2018-07-24T04:43:50.682Z,970.0
2018-07-24T04:44:52.327Z,969.9
2018-07-24T04:45:53.963Z,970.0
2018-07-24T04:46:55.613Z,969.9
2018-07-24T04:47:57.253Z,969.9
2018-07-24T04:48:58.898Z,969.9
2018-07-24T04:50:00.622Z,969.9
2018-07-24T04:51:02.253Z,970.0
2018-07-24T04:52:03.899Z,970.0
2018-07-24T04:53:06.201Z,970.0
2018-07-24T04:54:07.843Z,970.0
2018-07-24T04:55:09.490Z,970.0
2018-07-24T04:56:11.139Z,970.1
2018-07-24T04:57:12.781Z,970.0
2018-07-24T04:58:14.424Z,970.1
2018-07-24T04:59:16.072Z,970.1
2018-07-24T05:00:17.716Z,970.0
2018-07-24T05:01:19.372Z,970.0
2018-07-24T05:02:21.014Z,970.0
2018-07-24T05:03:22.723Z,970.0
2018-07-24T05:04:24.312Z,970.0
2018-07-24T05:05:25.947Z,970.0
2018-07-24T05:06:27.607Z,970.0
2018-07-24T05:07:29.262Z,970.0
2018-07-24T05:08:30.910Z,970.0
2018-07-24T05:09:32.561Z,970.0
2018-07-24T05:10:34.314Z,970.0
2018-07-24T05:11:35.850Z,970.0
2018-07-24T05:12:37.502Z,970.0
2018-07-24T05:13:39.188Z,970.0
2018-07-24T05:14:40.852Z,970.1
2018-07-24T05:15:42.482Z,970.0
2018-07-24T05:16:44.142Z,970.0
2018-07-24T05:17:45.781Z,970.0
2018-07-24T05:18:47.615Z,970.1
2018-07-24T05:19:49.269Z,970.1
2018-07-24T05:20:50.906Z,970.1
2018-07-24T05:21:52.559Z,970.1
2018-07-24T05:22:54.204Z,970.1
2018-07-24T05:23:55.859Z,970.1
2018-07-24T05:24:57.526Z,970.1
2018-07-24T05:25:59.164Z,970.0
2018-07-24T05:27:00.807Z,970.1
2018-07-24T05:28:02.447Z,970.1
2018-07-24T05:29:04.099Z,970.1
2018-07-24T05:30:05.753Z,970.1
2018-07-24T05:31:07.972Z,970.1
2018-07-24T05:32:09.624Z,970.1
2018-07-24T05:33:11.324Z,970.1
2018-07-24T05:34:13.887Z,970.1
2018-07-24T05:35:15.530Z,970.1
2018-07-24T05:36:17.175Z,970.2
2018-07-24T05:37:18.828Z,970.1
2018-07-24T05:38:20.483Z,970.1
2018-07-24T05:39:22.154Z,970.1
2018-07-24T05:40:23.807Z,970.1
2018-07-24T05:41:25.452Z,970.1
2018-07-24T05:42:27.099Z,970.1
2018-07-24T05:43:28.756Z,970.2
2018-07-24T05:44:30.402Z,970.1
2018-07-24T05:45:32.052Z,970.2
2018-07-24T05:46:33.703Z,970.1
2018-07-24T05:47:35.350Z,970.2
2018-07-24T05:48:37.045Z,970.2
2018-07-24T05:49:38.645Z,970.2
2018-07-24T05:50:40.298Z,970.2
2018-07-24T05:51:41.939Z,970.2
2018-07-24T05:52:43.595Z,970.2
2018-07-24T05:53:45.749Z,970.2
2018-07-24T05:54:47.410Z,970.1
2018-07-24T05:55:49.065Z,970.1
2018-07-24T06:02:01.954Z,970.1
2018-07-24T06:03:03.509Z,970.2
2018-07-24T06:04:55.293Z,970.2
2018-07-24T06:05:56.943Z,970.1
2018-07-24T06:07:48.722Z,970.2
2018-07-24T06:08:50.371Z,970.2
2018-07-24T06:09:52.026Z,970.2
2018-07-24T06:10:53.671Z,970.2
2018-07-24T06:11:55.327Z,970.2
2018-07-24T06:12:56.980Z,970.2
2018-07-24T06:13:58.628Z,970.1
2018-07-24T06:15:00.282Z,970.1
2018-07-24T06:16:01.936Z,970.2
2018-07-24T06:17:03.607Z,970.2
2018-07-24T06:18:05.199Z,970.2
2018-07-24T06:19:06.846Z,970.2
2018-07-24T06:20:08.502Z,970.1
2018-07-24T06:21:10.155Z,970.1
2018-07-24T06:22:11.837Z,970.1
2018-07-24T06:23:13.487Z,970.1
2018-07-24T06:24:15.146Z,970.2
2018-07-24T06:25:16.904Z,970.1
2018-07-24T06:26:18.441Z,970.1
2018-07-24T06:27:20.091Z,970.2
2018-07-24T06:28:22.170Z,970.1
2018-07-24T06:29:23.849Z,970.1
2018-07-24T06:30:25.430Z,970.1
2018-07-24T06:31:27.112Z,970.1
2018-07-24T06:32:28.765Z,970.1
2018-07-24T06:33:30.416Z,970.1
2018-07-24T06:34:32.063Z,970.1
2018-07-24T06:35:33.731Z,970.1
2018-07-24T06:36:35.380Z,970.1
2018-07-24T06:37:37.036Z,970.1
2018-07-24T06:38:38.693Z,970.2
2018-07-24T06:39:40.415Z,970.2
2018-07-24T06:40:42.005Z,970.1
2018-07-24T06:41:43.659Z,970.1
2018-07-24T06:42:45.319Z,970.1
2018-07-24T06:43:46.965Z,970.2
2018-07-24T06:44:48.626Z,970.2
2018-07-24T06:45:50.282Z,970.2
2018-07-24T06:46:51.946Z,970.2
2018-07-24T06:47:53.604Z,970.2
2018-07-24T06:48:55.264Z,970.2
2018-07-24T06:49:56.920Z,970.2
2018-07-24T06:50:58.580Z,970.2
2018-07-24T06:52:00.277Z,970.2
2018-07-24T06:53:01.854Z,970.1
2018-07-24T06:54:03.525Z,970.1
2018-07-24T06:55:05.156Z,970.2
2018-07-24T06:56:06.816Z,970.1
2018-07-24T06:57:08.473Z,970.1
2018-07-24T06:58:10.132Z,970.2
2018-07-24T06:59:11.791Z,970.1
2018-07-24T07:00:13.450Z,970.1
2018-07-24T07:01:15.111Z,970.1
2018-07-24T07:02:16.791Z,970.1
2018-07-24T07:03:18.453Z,970.2
2018-07-24T07:04:20.086Z,970.1
2018-07-24T07:05:21.744Z,970.2
2018-07-24T07:06:23.406Z,970.2
2018-07-24T07:07:25.063Z,970.1
2018-07-24T07:08:26.719Z,970.1
2018-07-24T07:09:28.380Z,970.1
2018-07-24T07:10:30.042Z,970.1
2018-07-24T07:11:31.697Z,970.1
2018-07-24T07:12:33.355Z,970.1
2018-07-24T07:13:35.045Z,970.1
2018-07-24T07:14:36.691Z,970.1
2018-07-24T07:15:38.344Z,970.1
2018-07-24T07:16:39.998Z,970.2
2018-07-24T07:17:41.656Z,970.1
2018-07-24T07:18:43.317Z,970.1
2018-07-24T07:19:44.988Z,970.1
2018-07-24T07:20:46.645Z,970.1
2018-07-24T07:21:48.343Z,970.1
2018-07-24T07:22:49.989Z,970.1
2018-07-24T07:23:51.657Z,970.1
2018-07-24T07:24:53.316Z,970.1
2018-07-24T07:25:54.972Z,970.1
2018-07-24T07:26:56.635Z,970.1
2018-07-24T07:27:58.295Z,970.1
2018-07-24T07:28:59.976Z,970.0
2018-07-24T07:30:01.614Z,970.0
2018-07-24T07:31:03.274Z,970.0
2018-07-24T07:32:04.936Z,970.0
2018-07-24T07:33:06.595Z,970.0
2018-07-24T07:34:08.259Z,970.0
2018-07-24T07:35:09.919Z,970.0
2018-07-24T07:36:11.601Z,970.0
2018-07-24T07:37:13.257Z,970.0
2018-07-24T07:38:14.934Z,969.9
2018-07-24T07:39:16.672Z,970.0
2018-07-24T07:40:18.230Z,969.9
2018-07-24T07:41:19.885Z,970.0
2018-07-24T07:42:21.566Z,969.9
2018-07-24T07:43:23.232Z,969.9
2018-07-24T07:44:25.364Z,970.0
2018-07-24T07:45:27.085Z,969.9
2018-07-24T07:46:28.701Z,969.9
2018-07-24T07:47:30.532Z,969.9
2018-07-24T07:48:32.306Z,969.9
2018-07-24T07:49:34.570Z,969.9
2018-07-24T07:50:36.247Z,969.9
2018-07-24T07:51:38.028Z,969.9
2018-07-24T07:52:39.685Z,969.9
2018-07-24T07:53:41.338Z,969.9
2018-07-24T07:54:43.139Z,969.9
2018-07-24T07:55:45.424Z,969.8
2018-07-24T07:56:47.139Z,969.8
2018-07-24T07:57:48.803Z,969.8
2018-07-24T07:58:50.512Z,969.8
2018-07-24T07:59:52.131Z,969.8
2018-07-24T08:00:53.791Z,969.8
2018-07-24T08:01:55.478Z,969.8
2018-07-24T08:02:57.140Z,969.8
2018-07-24T08:03:58.815Z,969.8
2018-07-24T08:05:00.468Z,969.9
2018-07-24T08:06:02.186Z,969.8
2018-07-24T08:07:03.880Z,969.8
2018-07-24T08:08:05.557Z,969.8
2018-07-24T08:09:07.905Z,969.9
2018-07-24T08:10:09.555Z,969.8
2018-07-24T08:11:11.232Z,969.8
2018-07-24T08:12:12.935Z,969.8
2018-07-24T08:13:14.556Z,969.8
2018-07-24T08:14:16.272Z,969.8
2018-07-24T08:15:17.902Z,969.8
2018-07-24T08:16:19.585Z,969.8
2018-07-24T08:17:21.526Z,969.8
2018-07-24T08:18:23.372Z,969.8
2018-07-24T08:19:25.124Z,969.8
2018-07-24T08:20:26.768Z,969.8
2018-07-24T08:21:28.434Z,969.8
2018-07-24T08:22:30.097Z,969.8
2018-07-24T08:23:31.758Z,969.8
2018-07-24T08:24:33.427Z,969.8
2018-07-24T08:25:35.086Z,969.7
2018-07-24T08:26:36.748Z,969.8
2018-07-24T08:27:38.416Z,969.7
2018-07-24T08:28:40.798Z,969.8
2018-07-24T08:29:42.456Z,969.7
2018-07-24T08:30:44.293Z,969.8
2018-07-24T08:31:45.963Z,969.8
2018-07-24T08:32:47.634Z,969.8
2018-07-24T08:33:49.284Z,969.8
2018-07-24T08:34:50.949Z,969.8
2018-07-24T08:35:52.616Z,969.8
2018-07-24T08:36:54.278Z,969.8
2018-07-24T08:37:55.944Z,969.8
2018-07-24T08:38:57.607Z,969.7
2018-07-24T08:39:59.274Z,969.7
2018-07-24T08:41:00.941Z,969.7
2018-07-24T08:42:02.607Z,969.7
2018-07-24T08:43:04.979Z,969.7
2018-07-24T08:44:06.654Z,969.7
2018-07-24T08:45:08.311Z,969.7
2018-07-24T08:46:09.990Z,969.7
2018-07-24T08:47:11.652Z,969.7
2018-07-24T08:48:13.325Z,969.7
2018-07-24T08:49:15.000Z,969.7
2018-07-24T08:50:16.618Z,969.7
2018-07-24T08:51:18.292Z,969.7
2018-07-24T08:52:19.970Z,969.7
2018-07-24T08:53:21.824Z,969.7
2018-07-24T08:54:23.489Z,969.7
2018-07-24T08:55:25.489Z,969.6
2018-07-24T08:56:26.899Z,969.6
2018-07-24T08:57:28.560Z,969.6
2018-07-24T08:58:30.265Z,969.6
2018-07-24T08:59:31.938Z,969.6
2018-07-24T09:00:33.626Z,969.6
2018-07-24T09:01:35.270Z,969.7
2018-07-24T09:02:36.928Z,969.7
2018-07-24T09:03:38.654Z,969.7
2018-07-24T09:04:40.433Z,969.6
2018-07-24T09:05:42.126Z,969.6
2018-07-24T09:06:43.895Z,969.6
2018-07-24T09:07:46.734Z,969.7
2018-07-24T09:08:48.416Z,969.6
2018-07-24T09:09:50.720Z,969.7
2018-07-24T09:10:52.433Z,969.6
2018-07-24T09:11:54.104Z,969.6
2018-07-24T09:12:55.772Z,969.6
2018-07-24T09:13:57.511Z,969.6
2018-07-24T09:14:59.212Z,969.6
2018-07-24T09:16:00.957Z,969.6
2018-07-24T09:17:02.609Z,969.6
2018-07-24T09:18:04.273Z,969.6
2018-07-24T09:19:05.938Z,969.6
2018-07-24T09:20:07.610Z,969.6
2018-07-24T09:21:09.276Z,969.5
2018-07-24T09:22:10.956Z,969.6
2018-07-24T09:23:12.628Z,969.6
2018-07-24T09:24:14.335Z,969.5
2018-07-24T09:25:16.012Z,969.5
2018-07-24T09:26:17.677Z,969.6
2018-07-24T09:27:19.342Z,969.5
2018-07-24T09:28:21.006Z,969.5
2018-07-24T09:29:22.725Z,969.6
2018-07-24T09:30:24.430Z,969.5
2018-07-24T09:31:26.124Z,969.5
2018-07-24T09:32:27.785Z,969.5
2018-07-24T09:33:29.452Z,969.5
2018-07-24T09:34:31.125Z,969.5
2018-07-24T09:35:32.797Z,969.6
2018-07-24T09:36:34.462Z,969.5
2018-07-24T09:37:36.153Z,969.6
2018-07-24T09:38:38.706Z,969.6
2018-07-24T09:39:40.433Z,969.6
2018-07-24T09:40:42.533Z,969.6
2018-07-24T09:41:44.157Z,969.6
2018-07-24T09:42:46.471Z,969.6
2018-07-24T09:43:48.182Z,969.6
2018-07-24T09:44:49.853Z,969.6
2018-07-24T09:45:51.520Z,969.6
2018-07-24T09:46:53.731Z,969.5
2018-07-24T09:47:55.413Z,969.5
2018-07-24T09:48:57.084Z,969.5
2018-07-24T09:49:58.755Z,969.5
2018-07-24T09:51:00.424Z,969.6
2018-07-24T09:52:02.108Z,969.6
2018-07-24T09:53:04.306Z,969.5
2018-07-24T09:54:05.976Z,969.6
2018-07-24T09:55:07.806Z,969.5
2018-07-24T10:01:31.198Z,969.4
2018-07-24T10:02:32.858Z,969.4
2018-07-24T10:03:34.511Z,969.4
2018-07-24T10:04:36.176Z,969.4
2018-07-24T10:05:37.857Z,969.4
2018-07-24T10:06:39.552Z,969.4
2018-07-24T10:07:41.223Z,969.4
2018-07-24T10:08:42.939Z,969.4
2018-07-24T10:09:44.566Z,969.4
2018-07-24T10:10:46.231Z,969.4
2018-07-24T10:11:47.920Z,969.4
2018-07-24T10:12:49.678Z,969.4
2018-07-24T10:13:51.251Z,969.3
2018-07-24T10:14:52.910Z,969.4
2018-07-24T10:15:54.594Z,969.3
2018-07-24T10:16:56.353Z,969.3
2018-07-24T10:17:58.702Z,969.4
2018-07-24T10:19:00.400Z,969.3
2018-07-24T10:20:02.049Z,969.3
2018-07-24T10:21:03.715Z,969.3
2018-07-24T10:22:05.379Z,969.3
2018-07-24T10:23:07.053Z,969.3
2018-07-24T10:24:08.721Z,969.3
2018-07-24T10:25:10.399Z,969.3
2018-07-24T10:26:12.058Z,969.3
2018-07-24T10:27:13.733Z,969.3
2018-07-24T10:28:15.422Z,969.3
2018-07-24T10:29:17.091Z,969.2
2018-07-24T10:30:19.258Z,969.2
2018-07-24T10:31:20.892Z,969.2
2018-07-24T10:32:22.545Z,969.2
2018-07-24T10:33:24.213Z,969.3
2018-07-24T10:34:25.877Z,969.3
2018-07-24T10:35:27.539Z,969.2
2018-07-24T10:36:29.216Z,969.1
2018-07-24T10:37:31.724Z,969.1
2018-07-24T10:38:33.388Z,969.1
2018-07-24T10:39:35.062Z,969.1
2018-07-24T10:40:36.742Z,969.1
2018-07-24T10:41:38.408Z,969.1
2018-07-24T10:42:40.080Z,969.1
2018-07-24T10:43:41.751Z,969.1
2018-07-24T10:44:43.569Z,969.1
2018-07-24T10:45:45.239Z,969.2
2018-07-24T10:46:46.902Z,969.2
2018-07-24T10:47:48.565Z,969.2
2018-07-24T10:48:50.240Z,969.2
2018-07-24T10:49:51.905Z,969.2
2018-07-24T10:50:53.610Z,969.2
2018-07-24T10:51:55.283Z,969.2
2018-07-24T10:52:56.968Z,969.1
2018-07-24T10:53:58.620Z,969.0
2018-07-24T10:55:00.276Z,969.0
2018-07-24T10:56:01.949Z,969.1
2018-07-24T10:57:03.614Z,969.0
2018-07-24T10:58:05.289Z,969.0
2018-07-24T10:59:06.951Z,969.1
2018-07-24T11:00:08.625Z,969.1
2018-07-24T11:01:10.294Z,969.1
2018-07-24T11:02:11.981Z,969.0
2018-07-24T11:03:13.628Z,969.1
2018-07-24T11:04:15.286Z,969.1
2018-07-24T11:05:16.991Z,969.1
2018-07-24T11:06:18.603Z,969.0
2018-07-24T11:07:20.270Z,969.0
2018-07-24T11:08:26.291Z,969.1
2018-07-24T11:09:28.076Z,969.1
2018-07-24T11:10:29.772Z,969.1
2018-07-24T11:11:31.442Z,969.0
2018-07-24T11:12:33.202Z,969.0
2018-07-24T11:13:34.888Z,969.0
2018-07-24T11:14:36.697Z,969.0
2018-07-24T11:15:38.357Z,969.0
2018-07-24T11:16:40.133Z,969.0
2018-07-24T11:17:41.730Z,969.0
2018-07-24T11:18:43.419Z,969.0
2018-07-24T11:19:45.136Z,968.9
2018-07-24T11:20:46.837Z,968.9
2018-07-24T11:21:48.568Z,968.9
2018-07-24T11:22:50.308Z,968.9
2018-07-24T11:23:51.816Z,968.9
2018-07-24T11:24:53.521Z,968.9
2018-07-24T11:25:55.312Z,968.9
2018-07-24T11:26:57.507Z,968.9
2018-07-24T11:27:59.244Z,968.9
2018-07-24T11:29:00.917Z,968.9
2018-07-24T11:30:02.594Z,968.9
2018-07-24T11:31:04.617Z,968.8
2018-07-24T11:32:06.446Z,968.8
2018-07-24T11:33:08.149Z,968.9
2018-07-24T11:34:10.192Z,968.8
2018-07-24T11:35:11.880Z,968.9
2018-07-24T11:36:13.583Z,968.8
2018-07-24T11:37:15.796Z,968.8
2018-07-24T11:38:17.468Z,968.8
2018-07-24T11:39:19.137Z,968.8
2018-07-24T11:40:20.803Z,968.9
2018-07-24T11:41:22.534Z,968.8
2018-07-24T11:42:24.201Z,968.8
2018-07-24T11:43:25.874Z,968.8
2018-07-24T11:44:27.561Z,968.9
2018-07-24T11:45:29.215Z,968.8
2018-07-24T11:46:31.023Z,968.8
2018-07-24T11:47:32.818Z,968.8
2018-07-24T11:48:34.618Z,968.8
2018-07-24T11:49:36.287Z,968.8
2018-07-24T11:50:37.953Z,968.8
2018-07-24T11:51:39.736Z,968.8
2018-07-24T11:52:41.282Z,968.8
2018-07-24T11:53:43.654Z,968.8
2018-07-24T11:54:45.562Z,968.7
2018-07-24T11:55:47.182Z,968.7
2018-07-24T11:56:49.087Z,968.7
2018-07-24T11:57:50.737Z,968.7
2018-07-24T11:58:52.396Z,968.7
2018-07-24T11:59:54.090Z,968.7
2018-07-24T12:00:55.733Z,968.7
2018-07-24T12:01:57.398Z,968.7
2018-07-24T12:02:59.065Z,968.7
2018-07-24T12:04:00.738Z,968.7
2018-07-24T12:05:02.406Z,968.7
2018-07-24T12:06:04.080Z,968.7
2018-07-24T12:07:05.745Z,968.7
2018-07-24T12:08:07.422Z,968.7
2018-07-24T12:09:09.091Z,968.7
2018-07-24T12:10:10.755Z,968.6
2018-07-24T12:11:12.431Z,968.5
2018-07-24T12:12:14.093Z,968.4
2018-07-24T12:13:15.757Z,968.3
2018-07-24T12:14:17.485Z,968.3
2018-07-24T12:15:19.151Z,968.4
2018-07-24T12:16:20.811Z,968.5
2018-07-24T12:17:22.484Z,968.6
2018-07-24T12:18:24.516Z,968.5
2018-07-24T12:19:26.199Z,968.5
2018-07-24T12:20:27.850Z,968.5
2018-07-24T12:21:29.518Z,968.6
2018-07-24T12:22:31.200Z,968.5
2018-07-24T12:23:32.861Z,968.5
2018-07-24T12:24:34.518Z,968.5
2018-07-24T12:25:36.189Z,968.4
2018-07-24T12:26:37.859Z,968.5
2018-07-24T12:27:39.539Z,968.5
2018-07-24T12:28:41.187Z,968.4
2018-07-24T12:29:42.858Z,968.5
2018-07-24T12:30:44.523Z,968.5
2018-07-24T12:31:46.219Z,968.5
2018-07-24T12:32:47.877Z,968.5
2018-07-24T12:33:49.554Z,968.5
2018-07-24T12:34:51.233Z,968.5
2018-07-24T12:35:52.910Z,968.4
2018-07-24T12:36:54.578Z,968.4
2018-07-24T12:37:56.266Z,968.5
2018-07-24T12:38:57.936Z,968.5
2018-07-24T12:39:59.607Z,968.5
2018-07-24T12:41:01.270Z,968.4
2018-07-24T12:42:02.990Z,968.5
2018-07-24T12:43:04.622Z,968.5
2018-07-24T12:44:06.307Z,968.6
2018-07-24T12:45:07.964Z,968.6
2018-07-24T12:46:09.631Z,968.5
2018-07-24T12:47:11.307Z,968.5
2018-07-24T12:48:12.976Z,968.5
2018-07-24T12:49:14.646Z,968.5
2018-07-24T12:50:16.323Z,968.5
2018-07-24T12:51:17.997Z,968.6
2018-07-24T12:52:19.679Z,968.5
2018-07-24T12:53:21.362Z,968.5
2018-07-24T12:54:24.346Z,968.6
2018-07-24T12:55:25.887Z,968.6
2018-07-24T12:56:27.552Z,968.6
2018-07-24T12:57:29.228Z,968.6
2018-07-24T12:58:30.915Z,968.7
2018-07-24T12:59:32.582Z,968.7
2018-07-24T13:00:34.269Z,968.8
2018-07-24T13:01:35.937Z,968.9
2018-07-24T13:02:37.598Z,969.0
2018-07-24T13:03:39.265Z,968.7
2018-07-24T13:04:40.930Z,968.3
2018-07-24T13:05:42.611Z,968.3
2018-07-24T13:06:44.296Z,968.3
2018-07-24T13:07:45.964Z,968.3
2018-07-24T13:08:47.625Z,968.2
2018-07-24T13:09:49.969Z,968.2
2018-07-24T13:10:51.696Z,968.2
2018-07-24T13:11:53.307Z,968.2
2018-07-24T13:12:54.974Z,968.2
2018-07-24T13:13:56.655Z,968.2
2018-07-24T13:14:58.325Z,968.2
2018-07-24T13:16:00.021Z,968.2
2018-07-24T13:17:01.681Z,968.2
2018-07-24T13:18:03.416Z,968.2
2018-07-24T13:19:05.090Z,968.2
2018-07-24T13:20:06.760Z,968.3
2018-07-24T13:21:08.429Z,968.5
2018-07-24T13:22:10.102Z,969.5
2018-07-24T13:23:11.760Z,969.6
2018-07-24T13:24:13.423Z,969.4
2018-07-24T13:25:15.094Z,969.4
2018-07-24T13:26:16.760Z,969.4
2018-07-24T13:27:18.431Z,969.4
2018-07-24T13:28:20.095Z,969.4
2018-07-24T13:29:21.825Z,969.3
2018-07-24T13:30:23.489Z,969.4
2018-07-24T13:31:25.163Z,969.1
2018-07-24T13:32:26.829Z,968.6
2018-07-24T13:33:28.500Z,968.3
2018-07-24T13:34:30.164Z,968.3
2018-07-24T13:35:31.839Z,968.3
2018-07-24T13:36:33.510Z,968.3
2018-07-24T13:37:35.233Z,968.2
2018-07-24T13:38:36.884Z,968.3
2018-07-24T13:39:38.548Z,968.3